createdAt,value
2023-02-14T00:01:45.469Z,20.90
2023-02-14T00:04:14.748Z,18.20
2023-02-14T00:06:43.522Z,32.00
2023-02-14T00:09:18.024Z,22.00
2023-02-14T00:11:46.703Z,18.40
2023-02-14T00:14:34.535Z,24.40
2023-02-14T00:17:03.270Z,38.60
2023-02-14T00:19:32.619Z,55.90
2023-02-14T00:22:01.164Z,46.70
2023-02-14T00:24:29.586Z,52.50
2023-02-14T00:26:58.104Z,54.80
2023-02-14T00:29:30.551Z,60.30
2023-02-14T00:31:59.056Z,54.70
2023-02-14T00:34:28.402Z,1.00
2023-02-14T00:36:56.980Z,7.40
2023-02-14T00:39:25.313Z,3.30
2023-02-14T00:41:53.652Z,1.00
2023-02-14T00:44:22.194Z,1.00
2023-02-14T00:46:50.587Z,1.00
2023-02-14T00:49:19.088Z,1.00
2023-02-14T00:51:47.533Z,1.00
2023-02-14T00:54:15.912Z,1.00
2023-02-14T00:56:44.294Z,1.00
2023-02-14T00:59:13.681Z,1.00
2023-02-14T01:01:42.049Z,1.00
2023-02-14T01:04:10.576Z,1.00
2023-02-14T01:06:38.994Z,1.00
2023-02-14T01:09:07.404Z,1.00
2023-02-14T01:11:36.119Z,1.00
2023-02-14T01:14:04.578Z,1.00
2023-02-14T01:16:33.021Z,1.00
2023-02-14T01:19:02.333Z,1.00
2023-02-14T01:21:33.585Z,1.00
2023-02-14T01:24:05.140Z,1.00
2023-02-14T01:26:33.712Z,1.00
2023-02-14T01:29:02.381Z,1.00
2023-02-14T01:31:33.898Z,1.00
2023-02-14T01:34:03.275Z,1.00
2023-02-14T01:36:38.224Z,1.00
2023-02-14T01:39:16.833Z,1.00
2023-02-14T01:41:50.390Z,1.00
2023-02-14T01:44:18.679Z,1.00
2023-02-14T01:46:47.528Z,1.00
2023-02-14T01:49:30.902Z,1.00
2023-02-14T01:52:07.410Z,1.00
2023-02-14T01:54:39.741Z,1.00
2023-02-14T01:57:10.834Z,1.00
2023-02-14T01:59:47.333Z,1.00
2023-02-14T02:02:15.779Z,1.00
2023-02-14T02:04:47.315Z,1.00
2023-02-14T02:07:21.706Z,1.00
2023-02-14T02:10:03.794Z,1.00
2023-02-14T02:12:32.563Z,1.00
2023-02-14T02:15:01.989Z,1.00
2023-02-14T02:18:10.373Z,1.00
2023-02-14T02:21:16.419Z,1.00
2023-02-14T02:24:35.514Z,1.00
2023-02-14T02:27:34.093Z,1.00
2023-02-14T02:30:08.621Z,1.00
2023-02-14T02:33:07.782Z,1.00
2023-02-14T02:35:59.360Z,1.00
2023-02-14T02:38:33.746Z,1.00
2023-02-14T02:41:10.951Z,1.00
2023-02-14T02:44:19.107Z,1.00
2023-02-14T02:47:03.561Z,1.00
2023-02-14T02:50:13.486Z,1.00
2023-02-14T02:53:03.887Z,1.00
2023-02-14T02:55:54.865Z,1.00
2023-02-14T02:58:27.017Z,1.00
2023-02-14T03:00:56.438Z,1.00
2023-02-14T03:03:45.771Z,1.00
2023-02-14T03:06:14.116Z,1.00
2023-02-14T03:08:42.516Z,1.00
2023-02-14T03:11:13.245Z,4.30
2023-02-14T03:14:12.751Z,2.50
2023-02-14T03:17:03.169Z,1.00
2023-02-14T03:20:05.838Z,1.00
2023-02-14T03:22:43.117Z,1.00
2023-02-14T03:25:33.335Z,1.00
2023-02-14T03:28:34.555Z,1.00
2023-02-14T03:31:13.149Z,1.00
2023-02-14T03:34:06.567Z,1.00
2023-02-14T03:36:54.105Z,1.00
2023-02-14T03:39:53.937Z,1.00
2023-02-14T03:42:48.345Z,1.00
2023-02-14T03:45:41.487Z,1.00
2023-02-14T03:48:13.333Z,1.00
2023-02-14T03:50:45.259Z,1.00
2023-02-14T03:53:18.116Z,1.00
2023-02-14T03:56:05.238Z,1.00
2023-02-14T03:58:38.599Z,1.00
2023-02-14T04:01:21.958Z,1.00
2023-02-14T04:03:51.553Z,1.00
2023-02-14T04:06:21.299Z,1.00
2023-02-14T04:08:49.656Z,1.00
2023-02-14T04:11:18.600Z,1.00
2023-02-14T04:13:47.031Z,1.00
2023-02-14T04:16:15.456Z,1.00
2023-02-14T04:19:02.316Z,1.00
2023-02-14T04:21:30.689Z,1.00
2023-02-14T04:23:59.032Z,1.00
2023-02-14T04:26:27.468Z,1.00
2023-02-14T04:28:55.830Z,1.00
2023-02-14T04:31:24.361Z,1.00
2023-02-14T04:33:52.837Z,1.00
2023-02-14T04:36:21.238Z,1.00
2023-02-14T04:38:49.625Z,1.00
2023-02-14T04:41:18.017Z,1.00
2023-02-14T04:43:46.364Z,1.00
2023-02-14T04:46:14.778Z,1.00
2023-02-14T04:48:43.305Z,1.00
2023-02-14T04:51:11.686Z,4.70
2023-02-14T04:53:41.106Z,20.70
2023-02-14T04:56:09.955Z,37.80
2023-02-14T04:58:38.332Z,61.60
2023-02-14T05:01:06.694Z,84.50
2023-02-14T05:03:35.165Z,92.30
2023-02-14T05:06:03.562Z,95.80
2023-02-14T05:08:31.901Z,99.90
2023-02-14T05:11:00.677Z,99.90
2023-02-14T05:13:29.401Z,99.90
2023-02-14T05:15:57.790Z,99.90
2023-02-14T05:18:26.401Z,99.90
2023-02-14T05:20:55.965Z,99.90
2023-02-14T05:23:24.777Z,99.90
2023-02-14T05:25:53.869Z,99.90
2023-02-14T05:28:22.347Z,99.90
2023-02-14T05:30:53.002Z,99.90
2023-02-14T05:33:21.437Z,99.90
2023-02-14T05:35:49.838Z,99.90
2023-02-14T05:38:18.486Z,99.90
2023-02-14T05:40:47.343Z,99.90
2023-02-14T05:43:15.825Z,99.90
2023-02-14T05:45:44.208Z,99.90
2023-02-14T05:48:12.902Z,99.90
2023-02-14T05:50:42.652Z,99.90
2023-02-14T05:53:12.233Z,99.90
2023-02-14T05:55:40.670Z,99.90
2023-02-14T05:58:09.525Z,99.90
2023-02-14T06:00:40.711Z,99.90
2023-02-14T06:03:09.617Z,99.90
2023-02-14T06:05:38.113Z,99.90
2023-02-14T06:08:06.527Z,99.90
2023-02-14T06:10:34.977Z,99.90
2023-02-14T06:13:03.405Z,99.90
2023-02-14T06:15:31.749Z,99.90
2023-02-14T06:18:00.122Z,99.90
2023-02-14T06:20:28.689Z,99.90
2023-02-14T06:22:57.840Z,99.90
2023-02-14T06:25:26.679Z,99.90
2023-02-14T06:27:58.690Z,99.90
2023-02-14T06:30:28.111Z,99.90
2023-02-14T06:32:56.628Z,99.90
2023-02-14T06:35:25.064Z,99.90
2023-02-14T06:37:53.481Z,99.90
2023-02-14T06:40:22.661Z,99.90
2023-02-14T06:42:51.027Z,99.90
2023-02-14T06:45:19.533Z,99.90
2023-02-14T06:47:48.136Z,99.90
2023-02-14T06:50:16.605Z,99.90
2023-02-14T06:52:45.295Z,99.90
2023-02-14T06:55:14.646Z,99.90
2023-02-14T06:57:43.026Z,99.90
2023-02-14T07:00:15.521Z,99.90
2023-02-14T07:02:44.232Z,99.90
2023-02-14T07:05:12.775Z,99.90
2023-02-14T07:07:41.113Z,99.90
2023-02-14T07:10:09.915Z,99.90
2023-02-14T07:12:40.344Z,99.90
2023-02-14T07:15:10.783Z,99.90
2023-02-14T07:17:39.465Z,99.90
2023-02-14T07:20:11.399Z,99.90
2023-02-14T07:22:40.313Z,99.90
2023-02-14T07:25:09.202Z,99.90
2023-02-14T07:27:37.819Z,99.90
2023-02-14T07:30:07.541Z,99.90
2023-02-14T07:32:36.079Z,99.90
2023-02-14T07:35:04.583Z,99.90
2023-02-14T07:37:36.894Z,99.90
2023-02-14T07:40:14.075Z,99.90
2023-02-14T07:42:43.261Z,99.90
2023-02-14T07:45:27.115Z,99.90
2023-02-14T07:47:56.500Z,99.90
2023-02-14T07:50:25.348Z,99.90
2023-02-14T07:52:53.775Z,99.90
2023-02-14T07:55:23.717Z,99.90
2023-02-14T07:57:52.960Z,99.90
2023-02-14T08:00:21.909Z,99.90
2023-02-14T08:02:50.267Z,99.90
2023-02-14T08:05:18.907Z,99.90
2023-02-14T08:07:47.340Z,99.90
2023-02-14T08:10:16.179Z,99.90
2023-02-14T08:12:59.913Z,99.90
2023-02-14T08:15:48.574Z,99.90
2023-02-14T08:18:18.948Z,99.90
2023-02-14T08:20:50.541Z,99.90
2023-02-14T08:23:19.942Z,99.90
2023-02-14T08:25:50.630Z,99.90
2023-02-14T08:28:22.602Z,99.90
2023-02-14T08:30:51.480Z,99.90
2023-02-14T08:33:20.402Z,99.90
2023-02-14T08:35:49.006Z,99.90
2023-02-14T08:38:17.350Z,99.90
2023-02-14T08:40:45.877Z,99.90
2023-02-14T08:43:15.207Z,99.90
2023-02-14T08:45:43.680Z,99.90
2023-02-14T08:48:14.011Z,99.90
2023-02-14T08:50:42.900Z,99.90
2023-02-14T08:53:13.842Z,99.90
2023-02-14T08:55:42.845Z,99.90
2023-02-14T08:58:11.211Z,99.90
2023-02-14T09:00:39.968Z,99.90
2023-02-14T09:03:08.620Z,99.90
2023-02-14T09:05:37.009Z,99.90
2023-02-14T09:08:06.592Z,99.90
2023-02-14T09:10:34.970Z,99.90
2023-02-14T09:13:03.310Z,99.90
2023-02-14T09:15:31.718Z,99.90
2023-02-14T09:18:00.142Z,99.90
2023-02-14T09:20:28.564Z,99.90
2023-02-14T09:22:58.009Z,99.90
2023-02-14T09:25:26.461Z,99.90
2023-02-14T09:27:54.857Z,99.90
2023-02-14T09:30:23.278Z,99.90
2023-02-14T09:32:53.700Z,99.90
2023-02-14T09:35:22.271Z,99.90
2023-02-14T09:37:50.622Z,99.90
2023-02-14T09:40:21.061Z,99.90
2023-02-14T09:43:00.074Z,99.90
2023-02-14T09:45:33.063Z,99.90
2023-02-14T09:48:37.073Z,99.90
2023-02-14T09:51:22.924Z,99.90
2023-02-14T09:54:01.987Z,99.90
2023-02-14T09:56:42.718Z,99.90
2023-02-14T09:59:26.406Z,99.90
2023-02-14T10:02:03.471Z,99.90
2023-02-14T10:04:48.759Z,99.90
2023-02-14T10:07:20.413Z,99.90
2023-02-14T10:10:09.612Z,99.90
2023-02-14T10:12:50.441Z,99.90
2023-02-14T10:15:43.938Z,99.90
2023-02-14T10:18:22.295Z,99.90
2023-02-14T10:20:58.262Z,99.90
2023-02-14T10:23:35.893Z,99.90
2023-02-14T10:26:11.962Z,99.90
2023-02-14T10:28:50.260Z,99.90
2023-02-14T10:31:22.937Z,99.90
2023-02-14T10:34:14.006Z,99.90
2023-02-14T10:37:13.982Z,99.90
2023-02-14T10:39:56.168Z,99.90
2023-02-14T10:42:38.201Z,99.90
2023-02-14T10:45:39.869Z,99.90
2023-02-14T10:48:47.678Z,99.90
2023-02-14T10:51:40.797Z,99.90
2023-02-14T10:54:12.234Z,99.90
2023-02-14T10:57:01.687Z,99.90
2023-02-14T10:59:55.048Z,99.90
2023-02-14T11:02:46.557Z,99.90
2023-02-14T11:05:37.073Z,99.90
2023-02-14T11:08:18.328Z,99.90
2023-02-14T11:10:47.451Z,99.90
2023-02-14T11:13:36.799Z,99.90
2023-02-14T11:16:19.109Z,99.90
2023-02-14T11:18:47.616Z,99.90
2023-02-14T11:21:27.184Z,99.90
2023-02-14T11:23:55.523Z,99.90
2023-02-14T11:26:35.858Z,99.90
2023-02-14T11:29:13.578Z,99.90
2023-02-14T11:31:43.234Z,99.90
2023-02-14T11:34:58.710Z,99.90
2023-02-14T11:37:35.185Z,99.90
2023-02-14T11:40:04.678Z,99.90
2023-02-14T11:42:47.695Z,99.90
2023-02-14T11:45:41.407Z,99.90
2023-02-14T11:48:39.493Z,99.90
2023-02-14T11:51:14.638Z,99.90
2023-02-14T11:53:49.474Z,99.90
2023-02-14T11:56:20.312Z,99.90
2023-02-14T11:58:54.582Z,99.90
2023-02-14T12:01:26.534Z,99.90
2023-02-14T12:03:58.230Z,99.90
2023-02-14T12:06:34.713Z,99.90
2023-02-14T12:09:24.338Z,99.90
2023-02-14T12:12:18.735Z,99.90
2023-02-14T12:14:47.573Z,99.90
2023-02-14T12:17:36.718Z,99.90
2023-02-14T12:20:18.791Z,99.90
2023-02-14T12:23:23.564Z,99.90
2023-02-14T12:26:19.974Z,99.90
2023-02-14T12:29:29.522Z,99.90
2023-02-14T12:32:02.936Z,99.90
2023-02-14T12:34:31.518Z,99.90
2023-02-14T12:37:18.666Z,99.90
2023-02-14T12:39:50.263Z,99.90
2023-02-14T12:42:33.756Z,99.90
2023-02-14T12:45:17.316Z,99.90
2023-02-14T12:48:27.101Z,99.90
2023-02-14T12:50:55.453Z,99.90
2023-02-14T12:53:46.241Z,99.90
2023-02-14T12:56:44.177Z,99.90
2023-02-14T12:59:47.207Z,99.90
2023-02-14T13:02:33.651Z,99.90
2023-02-14T13:05:02.656Z,99.90
2023-02-14T13:07:54.234Z,99.90
2023-02-14T13:10:22.565Z,99.90
2023-02-14T13:13:26.592Z,99.90
2023-02-14T13:16:11.652Z,99.90
2023-02-14T13:18:45.051Z,99.90
2023-02-14T13:21:17.964Z,99.90
2023-02-14T13:23:50.830Z,99.90
2023-02-14T13:26:36.737Z,99.90
2023-02-14T13:29:21.551Z,99.90
2023-02-14T13:31:50.735Z,99.90
2023-02-14T13:34:33.444Z,99.90
2023-02-14T13:37:04.704Z,99.90
2023-02-14T13:39:41.949Z,99.90
2023-02-14T13:42:12.289Z,99.90
2023-02-14T13:44:48.723Z,99.90
2023-02-14T13:47:21.211Z,99.90
2023-02-14T13:49:59.113Z,99.90
2023-02-14T13:52:45.823Z,99.90
2023-02-14T13:55:27.181Z,99.90
2023-02-14T13:58:03.818Z,99.90
2023-02-14T14:00:47.475Z,99.90
2023-02-14T14:03:17.456Z,99.90
2023-02-14T14:05:58.960Z,99.90
2023-02-14T14:08:29.870Z,99.90
2023-02-14T14:11:01.913Z,99.90
2023-02-14T14:13:42.753Z,99.90
2023-02-14T14:16:41.095Z,99.90
2023-02-14T14:19:18.368Z,99.90
2023-02-14T14:22:01.470Z,99.90
2023-02-14T14:24:38.754Z,99.90
2023-02-14T14:27:19.384Z,99.90
2023-02-14T14:29:50.559Z,99.90
2023-02-14T14:32:31.544Z,99.90
2023-02-14T14:35:04.090Z,99.90
2023-02-14T14:37:37.751Z,99.90
2023-02-14T14:40:09.180Z,99.90
2023-02-14T14:42:40.904Z,99.90
2023-02-14T14:45:21.470Z,99.90
2023-02-14T14:47:54.125Z,99.90
2023-02-14T14:50:30.572Z,99.90
2023-02-14T14:53:28.160Z,99.90
2023-02-14T14:55:57.032Z,99.90
2023-02-14T14:58:40.942Z,99.90
2023-02-14T15:01:14.157Z,99.90
2023-02-14T15:03:42.726Z,99.90
2023-02-14T15:06:18.245Z,99.90
2023-02-14T15:08:48.912Z,99.90
2023-02-14T15:11:45.537Z,99.90
2023-02-14T15:14:25.121Z,99.90
2023-02-14T15:16:59.888Z,99.90
2023-02-14T15:19:52.343Z,99.90
2023-02-14T15:22:45.189Z,99.90
2023-02-14T15:25:20.305Z,99.90
2023-02-14T15:27:49.109Z,99.90
2023-02-14T15:30:20.789Z,99.90
2023-02-14T15:32:51.472Z,99.90
2023-02-14T15:35:29.924Z,99.90
2023-02-14T15:38:01.978Z,99.90
2023-02-14T15:40:33.482Z,99.90
2023-02-14T15:43:23.685Z,99.90
2023-02-14T15:46:13.805Z,99.90
2023-02-14T15:48:43.147Z,99.90
2023-02-14T15:51:22.119Z,99.90
2023-02-14T15:53:59.186Z,99.90
2023-02-14T15:56:37.213Z,99.90
2023-02-14T15:59:30.538Z,99.90
2023-02-14T16:02:00.247Z,99.90
2023-02-14T16:04:34.987Z,99.90
2023-02-14T16:07:28.477Z,99.90
2023-02-14T16:10:38.936Z,99.90
2023-02-14T16:13:14.585Z,99.90
2023-02-14T16:16:00.236Z,99.90
2023-02-14T16:18:46.079Z,99.90
2023-02-14T16:21:16.518Z,99.90
2023-02-14T16:23:47.022Z,99.90
2023-02-14T16:26:16.312Z,99.90
2023-02-14T16:28:44.723Z,99.90
2023-02-14T16:31:17.768Z,99.90
2023-02-14T16:33:46.272Z,99.90
2023-02-14T16:36:30.034Z,99.90
2023-02-14T16:38:58.894Z,99.90
2023-02-14T16:41:29.563Z,99.90
2023-02-14T16:43:58.338Z,99.90
2023-02-14T16:46:31.554Z,99.90
2023-02-14T16:49:00.184Z,99.60
2023-02-14T16:51:35.106Z,99.90
2023-02-14T16:54:09.693Z,98.20
2023-02-14T16:56:47.791Z,99.90
2023-02-14T16:59:16.320Z,99.90
2023-02-14T17:01:44.724Z,99.90
2023-02-14T17:04:13.437Z,99.90
2023-02-14T17:06:47.903Z,99.90
2023-02-14T17:09:21.029Z,99.90
2023-02-14T17:11:52.953Z,99.30
2023-02-14T17:14:26.421Z,99.90
2023-02-14T17:16:57.158Z,98.30
2023-02-14T17:19:25.633Z,99.90
2023-02-14T17:21:54.255Z,99.90
2023-02-14T17:24:22.582Z,99.90
2023-02-14T17:26:50.910Z,98.00
2023-02-14T17:29:19.273Z,94.80
2023-02-14T17:31:47.805Z,93.10
2023-02-14T17:34:16.265Z,90.80
2023-02-14T17:36:44.661Z,94.60
2023-02-14T17:39:12.998Z,88.20
2023-02-14T17:41:41.373Z,79.60
2023-02-14T17:44:10.152Z,82.80
2023-02-14T17:46:38.519Z,88.80
2023-02-14T17:49:07.537Z,88.70
2023-02-14T17:51:36.086Z,88.90
2023-02-14T17:54:04.545Z,84.10
2023-02-14T17:56:32.894Z,87.40
2023-02-14T17:59:01.383Z,80.80
2023-02-14T18:01:35.483Z,79.70
2023-02-14T18:04:05.433Z,64.60
2023-02-14T18:06:34.237Z,51.50
2023-02-14T18:09:07.287Z,16.50
2023-02-14T18:11:35.702Z,9.60
2023-02-14T18:14:05.310Z,20.60
2023-02-14T18:16:34.128Z,14.40
2023-02-14T18:19:06.067Z,11.60
2023-02-14T18:21:36.935Z,6.50
2023-02-14T18:24:05.689Z,1.60
2023-02-14T18:26:34.678Z,1.00
2023-02-14T18:29:07.309Z,1.00
2023-02-14T18:31:37.331Z,1.00
2023-02-14T18:34:06.191Z,1.00
2023-02-14T18:36:37.761Z,1.00
2023-02-14T18:39:07.046Z,1.00
2023-02-14T18:41:36.063Z,1.00
2023-02-14T18:44:04.771Z,1.00
2023-02-14T18:46:36.291Z,1.00
2023-02-14T18:49:07.840Z,1.00
2023-02-14T18:51:40.020Z,1.00
2023-02-14T18:54:08.883Z,1.00
2023-02-14T18:56:39.460Z,1.00
2023-02-14T18:59:14.093Z,1.00
2023-02-14T19:01:46.970Z,1.00
2023-02-14T19:04:15.604Z,1.00
2023-02-14T19:06:44.394Z,1.00
2023-02-14T19:09:14.978Z,1.00
2023-02-14T19:11:44.068Z,1.00
2023-02-14T19:14:14.040Z,1.00
2023-02-14T19:16:51.346Z,1.00
2023-02-14T19:19:21.625Z,1.00
2023-02-14T19:21:50.751Z,1.00
2023-02-14T19:24:20.558Z,1.00
2023-02-14T19:26:49.381Z,1.00
2023-02-14T19:29:19.089Z,1.00
2023-02-14T19:31:56.679Z,1.00
2023-02-14T19:34:29.364Z,1.00
2023-02-14T19:37:00.583Z,1.00
2023-02-14T19:39:31.014Z,1.00
2023-02-14T19:42:00.212Z,1.00
2023-02-14T19:44:30.038Z,1.00
2023-02-14T19:47:00.781Z,1.00
2023-02-14T19:49:30.605Z,1.00
2023-02-14T19:51:59.670Z,1.00
2023-02-14T19:54:28.066Z,1.00
2023-02-14T19:56:57.009Z,1.00
2023-02-14T19:59:25.437Z,1.00
2023-02-14T20:01:55.730Z,1.00
2023-02-14T20:04:30.180Z,1.00
2023-02-14T20:06:59.526Z,1.00
2023-02-14T20:09:27.893Z,1.00
2023-02-14T20:11:58.569Z,1.00
2023-02-14T20:14:31.467Z,1.00
2023-02-14T20:17:02.489Z,1.00
2023-02-14T20:19:34.240Z,1.00
2023-02-14T20:22:02.936Z,1.00
2023-02-14T20:24:33.393Z,1.00
2023-02-14T20:27:03.119Z,1.00
2023-02-14T20:29:31.532Z,1.00
2023-02-14T20:32:02.212Z,1.00
2023-02-14T20:34:30.644Z,1.00
2023-02-14T20:36:59.998Z,1.00
2023-02-14T20:39:32.007Z,1.00
2023-02-14T20:42:01.212Z,1.00
2023-02-14T20:44:29.639Z,1.00
2023-02-14T20:46:59.921Z,1.00
2023-02-14T20:49:30.626Z,1.00
2023-02-14T20:51:59.820Z,1.00
2023-02-14T20:54:29.601Z,1.00
2023-02-14T20:56:58.685Z,1.00
2023-02-14T20:59:30.180Z,1.00
2023-02-14T21:02:00.078Z,1.00
2023-02-14T21:04:29.774Z,1.00
2023-02-14T21:07:00.425Z,1.00
2023-02-14T21:09:29.088Z,1.00
2023-02-14T21:11:59.259Z,1.00
2023-02-14T21:14:27.826Z,1.00
2023-02-14T21:16:56.217Z,1.00
2023-02-14T21:19:25.632Z,1.00
2023-02-14T21:21:54.895Z,1.00
2023-02-14T21:24:25.934Z,1.00
2023-02-14T21:26:54.390Z,1.00
2023-02-14T21:29:22.856Z,1.00
2023-02-14T21:31:51.452Z,1.00
2023-02-14T21:34:19.890Z,1.00
2023-02-14T21:36:48.296Z,1.00
2023-02-14T21:39:16.728Z,1.00
2023-02-14T21:41:45.087Z,1.00
2023-02-14T21:44:33.324Z,1.00
2023-02-14T21:47:01.706Z,1.00
2023-02-14T21:49:48.526Z,1.00
2023-02-14T21:52:16.902Z,1.00
2023-02-14T21:54:45.247Z,1.00
2023-02-14T21:57:13.762Z,1.00
2023-02-14T21:59:42.529Z,1.00
2023-02-14T22:02:13.400Z,1.00
2023-02-14T22:04:45.008Z,1.00
2023-02-14T22:07:13.461Z,1.00
2023-02-14T22:09:41.965Z,1.00
2023-02-14T22:12:10.365Z,1.00
2023-02-14T22:14:38.696Z,1.00
2023-02-14T22:17:07.035Z,1.00
2023-02-14T22:19:37.233Z,1.00
2023-02-14T22:22:06.117Z,1.00
2023-02-14T22:24:34.477Z,1.00
2023-02-14T22:27:02.908Z,1.00
2023-02-14T22:29:31.323Z,1.00
2023-02-14T22:31:59.723Z,1.00
2023-02-14T22:34:28.180Z,1.00
2023-02-14T22:36:56.599Z,1.00
2023-02-14T22:39:24.995Z,1.00
2023-02-14T22:41:53.377Z,1.00
2023-02-14T22:44:21.765Z,1.00
2023-02-14T22:46:50.163Z,1.00
2023-02-14T22:49:18.564Z,1.00
2023-02-14T22:51:46.988Z,1.00
2023-02-14T22:54:16.884Z,1.00
2023-02-14T22:56:51.819Z,1.00
2023-02-14T22:59:25.646Z,1.00
2023-02-14T23:01:54.522Z,1.00
2023-02-14T23:04:25.753Z,1.00
2023-02-14T23:06:54.819Z,1.00
2023-02-14T23:09:24.343Z,1.00
2023-02-14T23:11:53.023Z,1.00
2023-02-14T23:14:39.945Z,1.00
2023-02-14T23:17:26.810Z,1.00
2023-02-14T23:20:13.753Z,1.00
2023-02-14T23:22:42.680Z,1.00
2023-02-14T23:25:12.907Z,1.00
2023-02-14T23:27:48.023Z,1.00
2023-02-14T23:30:19.041Z,1.00
2023-02-14T23:32:47.499Z,1.00
2023-02-14T23:35:16.074Z,1.00
2023-02-14T23:37:44.450Z,1.00
2023-02-14T23:40:13.109Z,1.00
2023-02-14T23:42:41.709Z,1.00
2023-02-14T23:45:29.340Z,1.00
2023-02-14T23:48:01.965Z,1.00
2023-02-14T23:50:30.487Z,1.00
2023-02-14T23:52:58.873Z,1.00
2023-02-14T23:55:27.513Z,1.00
2023-02-14T23:57:55.853Z,1.00
